Time;durP1;ratioP1;P1;durP2;ratioP2;P2;SDS_P1;SDS_P2;PMS_P1;PMS_P2;Temp;Humidity;BMP_temperature;BMP_pressure;BME280_temperature;BME280_humidity;BME280_pressure;Samples;Min_cycle;Max_cycle;Signal;HPM_P1;HPM_P2
2021/08/22 00:01:02;;;;;;;;;;;18.10;99.90;;;;;;5118043;28;19923;-67
2021/08/22 00:03:52;;;;;;;;;;;18.10;99.90;;;;;;5113808;28;20030;-66
2021/08/22 00:06:41;;;;;;;;;;;18.10;99.90;;;;;;5112911;28;20016;-67
2021/08/22 00:09:30;;;;;;;;;;;18.10;99.90;;;;;;5112353;28;20022;-66
2021/08/22 00:12:18;;;;;;;;;;;18.00;99.90;;;;;;5111923;27;20010;-66
2021/08/22 00:15:09;;;;;;;;;;;18.00;99.90;;;;;;5107001;28;19924;-67
2021/08/22 00:17:57;;;;;;;;;;;17.90;99.90;;;;;;5110751;28;19970;-67
2021/08/22 00:20:46;;;;;;;;;;;17.80;99.90;;;;;;5113647;28;19981;-66
2021/08/22 00:23:34;;;;;;;;;;;17.80;99.90;;;;;;5112933;28;19928;-69
2021/08/22 00:26:22;;;;;;;;;;;17.70;99.90;;;;;;5113164;28;19939;-67
2021/08/22 00:29:11;;;;;;;;;;;17.70;99.90;;;;;;5112139;28;19924;-67
2021/08/22 00:32:02;;;;;;;;;;;17.70;99.90;;;;;;5107045;28;19935;-68
2021/08/22 00:34:51;;;;;;;;;;;17.70;99.90;;;;;;5113032;28;19931;-67
2021/08/22 00:37:43;;;;;;;;;;;17.70;99.90;;;;;;5111982;28;19938;-66
2021/08/22 00:40:36;;;;;;;;;;;17.60;99.90;;;;;;5113075;28;20008;-66
2021/08/22 00:43:24;;;;;;;;;;;17.60;99.90;;;;;;5112225;28;19938;-67
2021/08/22 00:46:14;;;;;;;;;;;17.60;99.90;;;;;;5107201;28;19931;-67
2021/08/22 00:49:07;;;;;;;;;;;17.60;99.90;;;;;;5112574;28;19928;-66
2021/08/22 00:51:56;;;;;;;;;;;17.50;99.90;;;;;;5111722;28;19931;-66
2021/08/22 00:54:47;;;;;;;;;;;17.50;99.90;;;;;;5113132;28;20076;-69
2021/08/22 00:57:36;;;;;;;;;;;17.70;99.90;;;;;;5111721;28;20330;-67
2021/08/22 01:00:25;;;;;;;;;;;17.70;99.90;;;;;;5105460;28;20295;-66
2021/08/22 01:03:16;;;;;;;;;;;17.70;99.90;;;;;;5112566;28;19924;-66
2021/08/22 01:06:11;;;;;;;;;;;17.80;99.90;;;;;;5113301;28;19923;-67
2021/08/22 01:09:03;;;;;;;;;;;17.80;99.90;;;;;;5112092;28;19946;-66
2021/08/22 01:11:54;;;;;;;;;;;17.80;99.90;;;;;;5118281;27;19923;-66
2021/08/22 01:14:45;;;;;;;;;;;17.90;99.90;;;;;;5131999;27;19935;-66
2021/08/22 01:17:35;;;;;;;;;;;18.00;99.90;;;;;;5131586;27;20282;-69
2021/08/22 01:20:32;;;;;;;;;;;18.00;99.90;;;;;;5117481;27;19930;-69
2021/08/22 01:23:24;;;;;;;;;;;18.00;99.90;;;;;;5132869;27;19930;-66
2021/08/22 01:26:15;;;;;;;;;;;18.00;99.90;;;;;;5131983;27;19946;-66
2021/08/22 01:29:04;;;;;;;;;;;18.10;99.90;;;;;;5117311;27;19923;-69
2021/08/22 01:31:54;;;;;;;;;;;18.10;99.90;;;;;;5105504;27;19968;-67
2021/08/22 01:34:45;;;;;;;;;;;18.10;99.90;;;;;;5111520;28;19932;-67
2021/08/22 01:37:36;;;;;;;;;;;18.00;99.90;;;;;;5111587;28;19924;-66
2021/08/22 01:40:26;;;;;;;;;;;17.90;99.90;;;;;;5112741;28;19977;-67
2021/08/22 01:43:14;;;;;;;;;;;17.80;99.90;;;;;;5121424;28;19931;-67
2021/08/22 01:46:06;;;;;;;;;;;17.80;99.90;;;;;;5127413;28;19908;-66
2021/08/22 01:48:55;;;;;;;;;;;17.80;99.90;;;;;;5134689;28;19908;-67
2021/08/22 01:51:46;;;;;;;;;;;17.80;99.90;;;;;;5135213;28;19983;-66
2021/08/22 01:54:36;;;;;;;;;;;17.70;99.90;;;;;;5134917;28;19938;-67
2021/08/22 01:57:25;;;;;;;;;;;17.60;99.90;;;;;;5133869;28;19907;-67
2021/08/22 02:00:14;;;;;;;;;;;17.60;99.90;;;;;;5128470;28;20460;-69
2021/08/22 02:03:06;;;;;;;;;;;17.50;99.90;;;;;;5119293;28;19923;-67
2021/08/22 02:05:56;;;;;;;;;;;17.50;99.90;;;;;;5133490;28;19945;-67
2021/08/22 02:08:50;;;;;;;;;;;17.50;99.90;;;;;;5127482;28;19924;-67
2021/08/22 02:11:41;;;;;;;;;;;17.50;99.90;;;;;;5116573;28;19923;-70
2021/08/22 02:14:32;;;;;;;;;;;17.40;99.90;;;;;;5114548;28;19924;-68
2021/08/22 02:17:22;;;;;;;;;;;17.40;99.90;;;;;;5106524;28;19938;-69
2021/08/22 02:20:11;;;;;;;;;;;17.40;99.90;;;;;;5111965;28;19930;-67
2021/08/22 02:23:00;;;;;;;;;;;17.40;99.90;;;;;;5111987;28;20090;-66
2021/08/22 02:25:50;;;;;;;;;;;17.40;99.90;;;;;;5111322;28;19924;-66
2021/08/22 02:28:39;;;;;;;;;;;17.50;99.90;;;;;;5112664;28;19924;-70
2021/08/22 02:31:29;;;;;;;;;;;17.70;99.90;;;;;;5106235;28;20452;-67
2021/08/22 02:34:18;;;;;;;;;;;17.80;99.90;;;;;;5112936;28;19975;-67
2021/08/22 02:37:07;;;;;;;;;;;18.10;99.90;;;;;;5112845;28;19924;-66
2021/08/22 02:39:56;;;;;;;;;;;18.40;99.90;;;;;;5112359;28;19923;-66
2021/08/22 02:42:46;;;;;;;;;;;18.50;99.90;;;;;;5113471;28;19931;-65
2021/08/22 02:45:34;;;;;;;;;;;18.70;99.90;;;;;;5121289;28;20357;-65
2021/08/22 02:48:23;;;;;;;;;;;18.30;99.90;;;;;;5112478;28;19973;-65
2021/08/22 02:51:11;;;;;;;;;;;18.00;99.90;;;;;;5111372;28;19928;-65
2021/08/22 02:54:00;;;;;;;;;;;17.80;99.90;;;;;;5109702;28;19992;-66
2021/08/22 02:56:48;;;;;;;;;;;17.70;99.90;;;;;;5110564;28;19994;-64
2021/08/22 02:59:38;;;;;;;;;;;17.70;99.90;;;;;;5111556;28;19923;-67
2021/08/22 03:02:26;;;;;;;;;;;17.60;99.90;;;;;;5105467;28;20032;-64
2021/08/22 03:05:15;;;;;;;;;;;17.60;99.90;;;;;;5111501;28;20286;-65
2021/08/22 03:08:05;;;;;;;;;;;17.70;99.90;;;;;;5110300;28;19957;-64
2021/08/22 03:10:53;;;;;;;;;;;17.70;99.90;;;;;;5111172;28;20371;-64
2021/08/22 03:13:41;;;;;;;;;;;17.50;99.90;;;;;;5116808;27;20427;-65
2021/08/22 03:16:31;;;;;;;;;;;17.40;99.90;;;;;;5127909;27;19927;-65
2021/08/22 03:19:19;;;;;;;;;;;17.30;99.90;;;;;;5135212;27;20298;-64
2021/08/22 03:22:09;;;;;;;;;;;17.20;99.90;;;;;;5134699;27;19930;-65
2021/08/22 03:24:57;;;;;;;;;;;17.10;99.90;;;;;;5135867;27;19923;-65
2021/08/22 03:27:49;;;;;;;;;;;17.10;99.90;;;;;;5119517;27;19924;-64
2021/08/22 03:30:39;;;;;;;;;;;17.10;99.90;;;;;;5128575;27;20057;-65
2021/08/22 03:33:29;;;;;;;;;;;17.00;99.90;;;;;;5134499;27;20519;-67
2021/08/22 03:36:18;;;;;;;;;;;17.00;99.90;;;;;;5133457;27;19934;-64
2021/08/22 03:39:11;;;;;;;;;;;17.10;99.90;;;;;;5135157;27;20010;-67
2021/08/22 03:42:00;;;;;;;;;;;17.00;99.90;;;;;;5134822;27;19965;-65
2021/08/22 03:44:51;;;;;;;;;;;17.00;99.90;;;;;;5134609;27;19924;-65
2021/08/22 03:47:39;;;;;;;;;;;17.00;99.90;;;;;;5134649;27;19976;-66
2021/08/22 03:50:29;;;;;;;;;;;16.90;99.90;;;;;;5134659;27;19924;-65
2021/08/22 03:53:17;;;;;;;;;;;16.70;99.90;;;;;;5133626;27;20023;-65
2021/08/22 03:56:06;;;;;;;;;;;16.60;99.90;;;;;;5133276;27;20319;-65
2021/08/22 03:58:54;;;;;;;;;;;16.50;99.90;;;;;;5134181;27;19968;-65
2021/08/22 04:01:42;;;;;;;;;;;16.60;99.90;;;;;;5126949;27;19942;-65
2021/08/22 04:04:47;;;;;;;;;;;16.60;99.90;;;;;;5119466;27;19930;-67
2021/08/22 04:07:38;;;;;;;;;;;16.60;99.90;;;;;;5133774;27;19960;-65
2021/08/22 04:10:27;;;;;;;;;;;16.60;99.90;;;;;;5134364;27;19923;-64
2021/08/22 04:13:16;;;;;;;;;;;16.50;99.90;;;;;;5133752;27;19959;-65
2021/08/22 04:16:05;;;;;;;;;;;16.50;99.90;;;;;;5111439;27;20052;-65
2021/08/22 04:18:54;;;;;;;;;;;16.40;99.90;;;;;;5134498;27;19923;-64
2021/08/22 04:21:42;;;;;;;;;;;16.40;99.90;;;;;;5132818;27;20283;-67
2021/08/22 04:24:32;;;;;;;;;;;16.30;99.90;;;;;;5133346;27;19962;-65
2021/08/22 04:27:20;;;;;;;;;;;16.30;99.90;;;;;;5132976;27;20287;-65
2021/08/22 04:30:09;;;;;;;;;;;16.20;99.90;;;;;;5128483;27;19985;-64
2021/08/22 04:32:59;;;;;;;;;;;16.10;99.90;;;;;;5133373;27;19923;-65
2021/08/22 04:35:47;;;;;;;;;;;16.20;99.90;;;;;;5133641;27;19924;-65
2021/08/22 04:38:36;;;;;;;;;;;16.10;99.90;;;;;;5133722;27;19999;-64
2021/08/22 04:41:27;;;;;;;;;;;16.20;99.90;;;;;;5133989;27;19927;-65
2021/08/22 04:44:16;;;;;;;;;;;16.20;99.90;;;;;;5133571;27;20375;-65
2021/08/22 04:47:05;;;;;;;;;;;16.20;99.90;;;;;;5127103;27;20371;-65
2021/08/22 04:49:56;;;;;;;;;;;16.20;99.90;;;;;;5133520;27;19924;-67
2021/08/22 04:52:45;;;;;;;;;;;16.20;99.90;;;;;;5133435;27;20091;-67
2021/08/22 04:55:34;;;;;;;;;;;16.30;99.90;;;;;;5118067;27;19923;-65
2021/08/22 04:58:23;;;;;;;;;;;16.30;99.90;;;;;;5132607;27;20063;-65
2021/08/22 05:01:12;;;;;;;;;;;16.30;99.90;;;;;;5127063;27;19924;-65
2021/08/22 05:04:00;;;;;;;;;;;16.30;99.90;;;;;;5133069;27;19924;-64
2021/08/22 05:06:49;;;;;;;;;;;16.30;99.90;;;;;;5133915;27;19931;-64
2021/08/22 05:09:38;;;;;;;;;;;16.30;99.90;;;;;;5132999;27;19923;-64
2021/08/22 05:12:27;;;;;;;;;;;16.30;99.90;;;;;;5133134;27;19931;-67
2021/08/22 05:15:17;;;;;;;;;;;16.40;99.90;;;;;;5127480;27;20016;-65
2021/08/22 05:18:05;;;;;;;;;;;16.40;99.90;;;;;;5132364;27;19945;-65
2021/08/22 05:20:56;;;;;;;;;;;16.50;99.90;;;;;;5132105;27;20011;-65
2021/08/22 05:23:48;;;;;;;;;;;16.60;99.90;;;;;;5133726;27;19923;-64
2021/08/22 05:26:36;;;;;;;;;;;16.50;99.90;;;;;;5132864;27;20379;-64
2021/08/22 05:29:25;;;;;;;;;;;16.50;99.90;;;;;;5148861;27;19997;-66
2021/08/22 05:32:15;;;;;;;;;;;16.40;99.90;;;;;;5132311;27;19934;-65
2021/08/22 05:35:04;;;;;;;;;;;16.40;99.90;;;;;;5134778;27;20011;-66
2021/08/22 05:37:52;;;;;;;;;;;16.50;99.90;;;;;;5133731;27;19923;-66
2021/08/22 05:40:42;;;;;;;;;;;16.50;99.90;;;;;;5133830;27;19924;-68
2021/08/22 05:43:30;;;;;;;;;;;16.50;99.90;;;;;;5133870;27;19923;-65
2021/08/22 05:46:19;;;;;;;;;;;16.60;99.90;;;;;;5120377;27;19924;-68
2021/08/22 05:49:08;;;;;;;;;;;16.50;99.90;;;;;;5132553;27;19923;-65
2021/08/22 05:51:57;;;;;;;;;;;16.50;99.90;;;;;;5132607;27;19971;-66
2021/08/22 05:54:47;;;;;;;;;;;16.60;99.90;;;;;;5132175;27;20397;-68
2021/08/22 05:57:35;;;;;;;;;;;16.70;99.90;;;;;;5131102;27;19923;-66
2021/08/22 06:00:24;;;;;;;;;;;16.70;99.90;;;;;;5124900;27;19931;-65
2021/08/22 06:03:12;;;;;;;;;;;16.70;99.90;;;;;;5132439;27;20383;-66
2021/08/22 06:06:06;;;;;;;;;;;16.90;99.90;;;;;;5131789;27;19924;-65
2021/08/22 06:08:55;;;;;;;;;;;17.20;99.90;;;;;;5132110;28;19923;-68
2021/08/22 06:11:44;;;;;;;;;;;17.20;99.90;;;;;;5132426;28;20378;-65
2021/08/22 06:14:35;;;;;;;;;;;17.40;99.90;;;;;;5134095;28;19923;-65
2021/08/22 06:17:23;;;;;;;;;;;17.40;99.90;;;;;;5127042;28;19930;-66
2021/08/22 06:20:12;;;;;;;;;;;17.60;99.90;;;;;;5131759;28;19924;-65
2021/08/22 06:23:02;;;;;;;;;;;17.60;99.90;;;;;;5131618;28;20475;-66
2021/08/22 06:25:50;;;;;;;;;;;17.80;99.90;;;;;;5132190;28;19924;-65
2021/08/22 06:28:39;;;;;;;;;;;17.80;99.90;;;;;;5132958;28;19923;-65
2021/08/22 06:31:29;;;;;;;;;;;17.90;99.90;;;;;;5126020;28;19923;-65
2021/08/22 06:34:18;;;;;;;;;;;17.80;99.90;;;;;;5133001;28;19924;-66
2021/08/22 06:37:06;;;;;;;;;;;17.90;99.90;;;;;;5132832;28;20383;-65
2021/08/22 06:39:58;;;;;;;;;;;17.70;99.90;;;;;;5131803;28;20014;-65
2021/08/22 06:42:47;;;;;;;;;;;17.80;99.90;;;;;;5133562;28;19924;-67
2021/08/22 06:45:37;;;;;;;;;;;17.90;99.90;;;;;;5128582;28;19923;-65
2021/08/22 06:48:25;;;;;;;;;;;18.20;99.90;;;;;;5134490;27;19924;-67
2021/08/22 06:51:14;;;;;;;;;;;18.70;99.90;;;;;;5137165;27;19928;-65
2021/08/22 06:54:02;;;;;;;;;;;19.90;99.90;;;;;;5144901;27;19923;-68
2021/08/22 06:56:55;;;;;;;;;;;20.30;99.90;;;;;;5144877;27;19939;-68
2021/08/22 06:59:44;;;;;;;;;;;20.20;99.90;;;;;;5137674;27;19927;-65
2021/08/22 07:02:32;;;;;;;;;;;19.80;99.90;;;;;;5136281;27;19923;-65
2021/08/22 07:05:21;;;;;;;;;;;20.20;99.90;;;;;;5135807;27;19946;-65
2021/08/22 07:08:11;;;;;;;;;;;21.50;99.90;;;;;;5134883;27;19945;-66
2021/08/22 07:10:59;;;;;;;;;;;21.80;99.90;;;;;;5135526;27;19927;-68
2021/08/22 07:13:49;;;;;;;;;;;21.80;99.90;;;;;;5136953;27;20286;-67
2021/08/22 07:16:38;;;;;;;;;;;22.00;99.90;;;;;;5131168;27;19962;-67
2021/08/22 07:19:28;;;;;;;;;;;23.20;99.90;;;;;;5135426;27;19970;-67
2021/08/22 07:22:17;;;;;;;;;;;23.60;99.90;;;;;;5136409;27;19930;-66
2021/08/22 07:25:06;;;;;;;;;;;23.00;99.90;;;;;;5136073;27;19924;-66
2021/08/22 07:27:54;;;;;;;;;;;22.20;99.90;;;;;;5134716;27;20405;-66
2021/08/22 07:30:45;;;;;;;;;;;21.40;99.90;;;;;;5113111;27;19931;-65
2021/08/22 07:33:34;;;;;;;;;;;21.20;99.90;;;;;;5120350;27;19927;-68
2021/08/22 07:36:23;;;;;;;;;;;20.80;99.90;;;;;;5137071;27;19924;-66
2021/08/22 07:39:13;;;;;;;;;;;20.50;99.90;;;;;;5136357;27;19924;-66
2021/08/22 07:42:02;;;;;;;;;;;20.10;99.90;;;;;;5135785;27;19935;-65
2021/08/22 07:44:52;;;;;;;;;;;20.30;99.90;;;;;;5134905;27;20057;-68
2021/08/22 07:47:43;;;;;;;;;;;20.20;99.90;;;;;;5135498;27;19923;-65
2021/08/22 07:50:32;;;;;;;;;;;20.00;99.90;;;;;;5135326;27;19949;-68
2021/08/22 07:53:21;;;;;;;;;;;20.10;99.90;;;;;;5120202;27;19924;-65
2021/08/22 07:56:09;;;;;;;;;;;20.10;99.90;;;;;;5135096;27;19951;-65
2021/08/22 07:58:58;;;;;;;;;;;19.60;99.90;;;;;;5134942;27;19923;-65
2021/08/22 08:01:48;;;;;;;;;;;19.50;99.90;;;;;;5113856;27;19923;-65
2021/08/22 08:04:40;;;;;;;;;;;19.30;99.90;;;;;;5135225;27;20011;-66
2021/08/22 08:07:29;;;;;;;;;;;19.20;99.90;;;;;;5134886;27;19969;-66
2021/08/22 08:10:20;;;;;;;;;;;19.20;99.90;;;;;;5135132;27;20014;-64
2021/08/22 08:13:08;;;;;;;;;;;19.00;99.90;;;;;;5143936;27;19953;-68
2021/08/22 08:15:59;;;;;;;;;;;18.60;99.90;;;;;;5137829;27;19923;-65
2021/08/22 08:18:48;;;;;;;;;;;18.60;99.90;;;;;;5134404;27;20375;-65
2021/08/22 08:21:39;;;;;;;;;;;19.00;99.90;;;;;;5141098;27;20349;-65
2021/08/22 08:24:30;;;;;;;;;;;19.50;99.90;;;;;;5135832;27;20303;-65
2021/08/22 08:27:19;;;;;;;;;;;19.40;99.90;;;;;;5133076;27;19930;-65
2021/08/22 08:30:08;;;;;;;;;;;19.10;99.90;;;;;;5126124;27;20302;-65
2021/08/22 08:32:57;;;;;;;;;;;19.00;99.90;;;;;;5113048;28;19989;-65
2021/08/22 08:35:47;;;;;;;;;;;19.10;99.90;;;;;;5112955;28;20352;-65
2021/08/22 08:38:37;;;;;;;;;;;19.10;99.90;;;;;;5111857;28;19932;-67
2021/08/22 08:41:26;;;;;;;;;;;18.90;99.90;;;;;;5111664;28;19923;-68
2021/08/22 08:44:15;;;;;;;;;;;18.80;99.90;;;;;;5117485;28;19935;-66
2021/08/22 08:47:04;;;;;;;;;;;18.90;99.90;;;;;;5109548;27;20333;-65
2021/08/22 08:49:55;;;;;;;;;;;18.90;99.90;;;;;;5133661;27;19931;-64
2021/08/22 08:52:48;;;;;;;;;;;19.20;99.90;;;;;;5133951;27;19972;-65
2021/08/22 08:55:42;;;;;;;;;;;19.40;99.90;;;;;;5137387;27;20056;-65
2021/08/22 08:58:32;;;;;;;;;;;19.70;99.90;;;;;;5134120;27;20407;-65
2021/08/22 09:01:21;;;;;;;;;;;20.10;99.90;;;;;;5126672;27;20307;-65
2021/08/22 09:04:16;;;;;;;;;;;20.60;99.90;;;;;;5133129;27;19923;-65
2021/08/22 09:07:24;;;;;;;;;;;21.00;99.90;;;;;;5138181;27;19923;-68
2021/08/22 09:10:32;;;;;;;;;;;21.10;99.90;;;;;;5133609;27;19923;-65
2021/08/22 09:13:39;;;;;;;;;;;20.80;99.90;;;;;;5133852;27;20126;-65
2021/08/22 09:16:46;;;;;;;;;;;20.60;99.90;;;;;;5126752;27;19923;-65
2021/08/22 09:20:04;;;;;;;;;;;20.60;99.90;;;;;;5132859;27;20011;-66
2021/08/22 09:23:22;;;;;;;;;;;21.10;99.90;;;;;;5031124;28;19925;-65
2021/08/22 09:26:31;;;;;;;;;;;21.50;99.90;;;;;;5124729;27;19924;-65
2021/08/22 09:29:38;;;;;;;;;;;21.80;99.90;;;;;;5133132;27;19923;-65
2021/08/22 09:32:46;;;;;;;;;;;22.10;99.90;;;;;;5108703;28;20390;-65
2021/08/22 09:35:52;;;;;;;;;;;22.70;99.90;;;;;;5111482;28;19931;-67
2021/08/22 09:39:00;;;;;;;;;;;22.80;99.90;;;;;;5111233;28;19932;-65
2021/08/22 09:42:13;;;;;;;;;;;22.90;99.90;;;;;;5112267;28;19930;-65
2021/08/22 09:45:25;;;;;;;;;;;22.80;99.90;;;;;;5112598;28;19930;-66
2021/08/22 09:48:28;;;;;;;;;;;22.20;99.90;;;;;;5102793;28;20364;-65
2021/08/22 09:51:50;;;;;;;;;;;21.50;99.90;;;;;;5097723;28;19931;-66
2021/08/22 09:54:57;;;;;;;;;;;20.90;99.90;;;;;;5112034;28;19928;-64
2021/08/22 09:58:00;;;;;;;;;;;20.90;99.90;;;;;;5111971;28;19942;-65
2021/08/22 10:01:00;;;;;;;;;;;20.90;99.90;;;;;;5070546;28;20012;-65
2021/08/22 10:04:19;;;;;;;;;;;20.80;99.90;;;;;;5112913;28;19931;-66
2021/08/22 10:07:26;;;;;;;;;;;20.60;99.90;;;;;;5112185;28;20290;-65
2021/08/22 10:10:17;;;;;;;;;;;20.40;99.90;;;;;;5111781;28;19975;-65
2021/08/22 10:13:05;;;;;;;;;;;20.10;99.90;;;;;;5111518;28;19924;-66
2021/08/22 10:15:54;;;;;;;;;;;19.90;99.90;;;;;;5105348;28;19924;-65
2021/08/22 10:18:44;;;;;;;;;;;19.80;99.90;;;;;;5111886;28;19965;-67
2021/08/22 10:21:32;;;;;;;;;;;19.90;99.90;;;;;;5112007;28;20378;-67
2021/08/22 10:24:35;;;;;;;;;;;20.00;99.90;;;;;;5114808;28;20010;-65
2021/08/22 10:27:49;;;;;;;;;;;20.10;99.90;;;;;;5115230;28;19941;-65
2021/08/22 10:30:44;;;;;;;;;;;20.30;99.90;;;;;;5102081;28;20052;-65
2021/08/22 10:33:33;;;;;;;;;;;20.40;99.90;;;;;;5116096;28;19947;-66
2021/08/22 10:36:30;;;;;;;;;;;20.40;99.90;;;;;;5115842;28;20409;-65
2021/08/22 10:39:30;;;;;;;;;;;20.40;99.90;;;;;;5116185;28;19934;-65
2021/08/22 10:42:19;;;;;;;;;;;20.60;99.90;;;;;;5115635;28;19930;-65
2021/08/22 10:45:08;;;;;;;;;;;21.00;99.90;;;;;;5110685;28;19932;-68
2021/08/22 10:47:56;;;;;;;;;;;21.30;99.90;;;;;;5116238;28;19923;-68
2021/08/22 10:51:04;;;;;;;;;;;21.50;99.90;;;;;;5115177;28;19930;-66
2021/08/22 10:54:07;;;;;;;;;;;22.00;99.90;;;;;;5115721;28;19924;-65
2021/08/22 10:56:57;;;;;;;;;;;22.00;99.90;;;;;;5123135;28;19998;-66
2021/08/22 11:00:16;;;;;;;;;;;22.30;99.90;;;;;;5127023;28;19973;-66
2021/08/22 11:03:06;;;;;;;;;;;22.70;99.90;;;;;;5086958;28;20002;-66
2021/08/22 11:05:55;;;;;;;;;;;22.70;99.90;;;;;;5094230;28;19931;-68
2021/08/22 11:08:44;;;;;;;;;;;22.50;99.90;;;;;;5096647;28;19925;-65
2021/08/22 11:11:43;;;;;;;;;;;22.10;99.90;;;;;;5097389;28;19923;-65
2021/08/22 11:14:33;;;;;;;;;;;21.60;99.90;;;;;;5100714;28;19924;-65
2021/08/22 11:17:21;;;;;;;;;;;21.30;99.90;;;;;;5129566;27;19949;-66
2021/08/22 11:20:10;;;;;;;;;;;21.10;99.90;;;;;;5135965;27;19923;-65
2021/08/22 11:23:03;;;;;;;;;;;21.20;99.90;;;;;;5136440;27;20402;-66
2021/08/22 11:26:00;;;;;;;;;;;21.30;99.90;;;;;;5137352;27;19923;-66
2021/08/22 11:28:54;;;;;;;;;;;21.30;99.90;;;;;;5137006;27;19923;-67
2021/08/22 11:31:45;;;;;;;;;;;21.10;99.90;;;;;;5131102;27;19943;-68
2021/08/22 11:34:34;;;;;;;;;;;20.90;99.90;;;;;;5146149;27;19928;-66
2021/08/22 11:37:22;;;;;;;;;;;20.90;99.90;;;;;;5150589;27;19930;-65
2021/08/22 11:40:12;;;;;;;;;;;21.00;99.90;;;;;;5135038;27;20306;-65
2021/08/22 11:43:02;;;;;;;;;;;21.00;99.90;;;;;;5135280;27;19987;-65
2021/08/22 11:45:50;;;;;;;;;;;20.90;99.90;;;;;;5129087;27;19927;-65
2021/08/22 11:48:40;;;;;;;;;;;20.80;99.90;;;;;;5134567;27;19923;-68
2021/08/22 11:51:29;;;;;;;;;;;21.00;99.90;;;;;;5137260;27;19923;-64
2021/08/22 11:54:18;;;;;;;;;;;21.00;99.90;;;;;;5136115;27;20130;-67
2021/08/22 11:57:16;;;;;;;;;;;21.30;99.90;;;;;;5136854;27;19927;-68
2021/08/22 12:00:05;;;;;;;;;;;21.70;99.90;;;;;;5129829;27;19946;-65
2021/08/22 12:03:01;;;;;;;;;;;21.90;99.90;;;;;;5134622;27;20023;-68
2021/08/22 12:05:54;;;;;;;;;;;22.00;99.90;;;;;;5134866;27;19946;-66
2021/08/22 12:08:47;;;;;;;;;;;21.90;99.90;;;;;;5135347;27;20048;-66
2021/08/22 12:11:36;;;;;;;;;;;22.00;99.90;;;;;;5134784;27;19997;-66
2021/08/22 12:14:31;;;;;;;;;;;22.00;99.90;;;;;;5134352;27;19934;-64
2021/08/22 12:17:23;;;;;;;;;;;22.00;99.90;;;;;;5127210;27;19961;-65
2021/08/22 12:20:20;;;;;;;;;;;22.10;99.90;;;;;;5129347;27;19924;-65
2021/08/22 12:23:11;;;;;;;;;;;22.20;99.90;;;;;;5133724;27;20329;-65
2021/08/22 12:26:18;;;;;;;;;;;22.00;99.90;;;;;;5135839;27;19930;-65
2021/08/22 12:29:08;;;;;;;;;;;22.00;99.90;;;;;;5134335;27;19923;-68
2021/08/22 12:32:09;;;;;;;;;;;22.20;99.90;;;;;;5128819;27;19924;-66
2021/08/22 12:35:02;;;;;;;;;;;22.30;99.90;;;;;;5136270;27;19923;-64
2021/08/22 12:37:50;;;;;;;;;;;22.20;99.90;;;;;;5137145;27;19937;-66
2021/08/22 12:40:40;;;;;;;;;;;22.20;99.90;;;;;;5134883;27;19989;-65
2021/08/22 12:43:29;;;;;;;;;;;22.20;99.90;;;;;;5134574;27;19977;-64
2021/08/22 12:46:18;;;;;;;;;;;22.20;99.90;;;;;;5125832;27;19961;-67
2021/08/22 12:49:06;;;;;;;;;;;22.10;99.90;;;;;;5133149;27;19940;-66
2021/08/22 12:51:57;;;;;;;;;;;21.80;99.90;;;;;;5133894;27;19923;-64
2021/08/22 12:54:45;;;;;;;;;;;21.50;99.90;;;;;;5133758;27;20336;-65
2021/08/22 12:57:35;;;;;;;;;;;20.70;99.90;;;;;;5132774;27;20367;-67
2021/08/22 13:00:23;;;;;;;;;;;19.80;99.90;;;;;;5128875;27;19930;-65
2021/08/22 13:03:13;;;;;;;;;;;19.20;99.90;;;;;;5136237;27;19935;-65
2021/08/22 13:06:02;;;;;;;;;;;18.90;99.90;;;;;;5133375;27;19965;-64
2021/08/22 13:08:52;;;;;;;;;;;18.60;99.90;;;;;;5134516;27;20417;-65
2021/08/22 13:11:40;;;;;;;;;;;18.70;99.90;;;;;;5134268;27;19924;-65
2021/08/22 13:14:30;;;;;;;;;;;18.70;99.90;;;;;;5119573;27;19930;-65
2021/08/22 13:17:21;;;;;;;;;;;18.60;99.90;;;;;;5111706;27;19935;-65
2021/08/22 13:20:11;;;;;;;;;;;18.80;99.90;;;;;;5113608;28;19930;-65
2021/08/22 13:22:59;;;;;;;;;;;18.70;99.90;;;;;;5113114;28;19923;-65
2021/08/22 13:25:48;;;;;;;;;;;18.80;99.90;;;;;;5122982;28;19935;-66
2021/08/22 13:28:37;;;;;;;;;;;18.80;99.90;;;;;;5115486;28;19988;-65
2021/08/22 13:31:28;;;;;;;;;;;18.90;99.90;;;;;;5125345;28;20269;-64
2021/08/22 13:34:16;;;;;;;;;;;18.90;99.90;;;;;;5129032;28;20033;-66
2021/08/22 13:37:04;;;;;;;;;;;18.90;99.90;;;;;;5125964;28;19924;-64
2021/08/22 13:39:53;;;;;;;;;;;19.10;99.90;;;;;;5116132;28;19931;-65
2021/08/22 13:42:42;;;;;;;;;;;19.20;99.90;;;;;;5129853;28;19931;-64
2021/08/22 13:45:31;;;;;;;;;;;19.10;99.90;;;;;;5114749;28;19938;-64
2021/08/22 13:48:21;;;;;;;;;;;19.20;99.90;;;;;;5123380;28;20303;-64
2021/08/22 13:51:11;;;;;;;;;;;19.10;99.90;;;;;;5112138;28;19978;-64
2021/08/22 13:53:59;;;;;;;;;;;19.10;99.90;;;;;;5112393;28;19935;-65
2021/08/22 13:56:48;;;;;;;;;;;19.20;99.90;;;;;;5111901;28;20375;-64
2021/08/22 13:59:36;;;;;;;;;;;19.40;99.90;;;;;;5113333;28;20006;-64
2021/08/22 14:02:25;;;;;;;;;;;19.70;99.90;;;;;;5104703;28;19924;-68
2021/08/22 14:05:15;;;;;;;;;;;19.70;99.90;;;;;;5111557;28;19931;-65
2021/08/22 14:08:05;;;;;;;;;;;19.80;99.90;;;;;;5111025;28;19924;-64
2021/08/22 14:10:54;;;;;;;;;;;19.70;99.90;;;;;;5110182;28;19928;-65
2021/08/22 14:13:42;;;;;;;;;;;19.60;99.90;;;;;;5112147;28;20379;-65
2021/08/22 14:16:30;;;;;;;;;;;19.70;99.90;;;;;;5108358;28;19924;-65
2021/08/22 14:19:19;;;;;;;;;;;19.60;99.90;;;;;;5112204;28;19930;-65
2021/08/22 14:22:08;;;;;;;;;;;19.70;99.90;;;;;;5111897;28;19924;-65
2021/08/22 14:24:57;;;;;;;;;;;19.80;99.90;;;;;;5096435;28;19930;-65
2021/08/22 14:27:50;;;;;;;;;;;19.90;99.90;;;;;;5112802;28;20394;-64
2021/08/22 14:30:40;;;;;;;;;;;20.20;99.90;;;;;;5105677;28;19986;-65
2021/08/22 14:33:28;;;;;;;;;;;20.20;99.90;;;;;;5111499;28;20018;-65
2021/08/22 14:36:17;;;;;;;;;;;20.10;99.90;;;;;;5113025;28;19924;-65
2021/08/22 14:39:08;;;;;;;;;;;20.20;99.90;;;;;;5112486;28;19942;-64
2021/08/22 14:41:59;;;;;;;;;;;20.30;99.90;;;;;;5096681;28;20010;-65
2021/08/22 14:44:48;;;;;;;;;;;20.00;99.90;;;;;;5113036;28;19931;-65
2021/08/22 14:47:37;;;;;;;;;;;20.00;99.90;;;;;;5087669;28;19924;-65
2021/08/22 14:50:25;;;;;;;;;;;20.10;99.90;;;;;;5091743;28;19928;-65
2021/08/22 14:53:15;;;;;;;;;;;20.10;99.90;;;;;;5093936;28;19932;-65
2021/08/22 14:56:06;;;;;;;;;;;20.00;99.90;;;;;;5092475;28;20298;-66
2021/08/22 14:58:55;;;;;;;;;;;19.90;99.90;;;;;;5091933;28;19974;-67
2021/08/22 15:01:43;;;;;;;;;;;19.90;99.90;;;;;;5101008;28;19931;-65
2021/08/22 15:04:32;;;;;;;;;;;19.70;99.90;;;;;;5111849;28;20038;-65
2021/08/22 15:07:20;;;;;;;;;;;19.70;99.90;;;;;;5111332;28;19928;-65
2021/08/22 15:10:10;;;;;;;;;;;19.70;99.90;;;;;;5106577;28;20428;-64
2021/08/22 15:13:00;;;;;;;;;;;19.40;99.90;;;;;;5115317;28;19938;-64
2021/08/22 15:15:48;;;;;;;;;;;19.40;99.90;;;;;;5104178;28;19924;-66
2021/08/22 15:18:38;;;;;;;;;;;19.30;99.90;;;;;;5117998;28;19923;-66
2021/08/22 15:21:27;;;;;;;;;;;19.30;99.90;;;;;;5115764;28;19927;-67
2021/08/22 15:24:15;;;;;;;;;;;19.40;99.90;;;;;;5114980;28;19923;-64
2021/08/22 15:27:04;;;;;;;;;;;19.40;99.90;;;;;;5115924;28;19924;-65
2021/08/22 15:29:54;;;;;;;;;;;19.50;99.90;;;;;;5115270;28;20001;-65
2021/08/22 15:32:44;;;;;;;;;;;19.60;99.90;;;;;;5115178;28;19931;-64
2021/08/22 15:35:33;;;;;;;;;;;19.40;99.90;;;;;;5114743;28;20079;-65
2021/08/22 15:38:21;;;;;;;;;;;19.10;99.90;;;;;;5114116;28;20008;-64
2021/08/22 15:41:12;;;;;;;;;;;19.00;99.90;;;;;;5099057;28;19923;-66
2021/08/22 15:44:01;;;;;;;;;;;19.00;99.90;;;;;;5114751;28;19934;-67
2021/08/22 15:46:51;;;;;;;;;;;19.00;99.90;;;;;;5107587;28;20312;-66
2021/08/22 15:49:40;;;;;;;;;;;19.00;99.90;;;;;;5098530;28;20379;-64
2021/08/22 15:52:28;;;;;;;;;;;18.90;99.90;;;;;;5115879;28;20394;-64
2021/08/22 15:55:17;;;;;;;;;;;19.00;99.90;;;;;;5100730;28;19924;-64
2021/08/22 15:58:05;;;;;;;;;;;19.00;99.90;;;;;;5114340;28;19941;-65
2021/08/22 16:00:54;;;;;;;;;;;18.90;99.90;;;;;;5106391;28;19924;-65
2021/08/22 16:03:44;;;;;;;;;;;19.00;99.90;;;;;;5114336;28;19934;-64
2021/08/22 16:06:33;;;;;;;;;;;19.00;99.90;;;;;;5114398;28;19935;-66
2021/08/22 16:09:25;;;;;;;;;;;19.10;99.90;;;;;;5114344;28;20075;-65
2021/08/22 16:12:14;;;;;;;;;;;19.10;99.90;;;;;;5115295;28;20446;-65
2021/08/22 16:15:02;;;;;;;;;;;19.10;99.90;;;;;;5126619;28;19927;-65
2021/08/22 16:17:52;;;;;;;;;;;19.20;99.90;;;;;;5105560;28;20303;-65
2021/08/22 16:20:42;;;;;;;;;;;19.40;99.90;;;;;;5092449;28;19965;-65
2021/08/22 16:23:31;;;;;;;;;;;19.50;99.90;;;;;;5096195;28;20018;-66
2021/08/22 16:26:20;;;;;;;;;;;19.70;99.90;;;;;;5107507;28;19934;-65
2021/08/22 16:29:12;;;;;;;;;;;19.90;99.90;;;;;;5092669;28;19956;-64
2021/08/22 16:32:01;;;;;;;;;;;20.00;99.90;;;;;;5104095;28;19973;-66
2021/08/22 16:34:49;;;;;;;;;;;20.00;99.90;;;;;;5113961;28;19931;-65